Time;durP1;ratioP1;P1;durP2;ratioP2;P2;SDS_P1;SDS_P2;PMS_P1;PMS_P2;Temp;Humidity;BMP_temperature;BMP_pressure;BME280_temperature;BME280_humidity;BME280_pressure;Samples;Min_cycle;Max_cycle;Signal;HPM_P1;HPM_P2
2023/12/20 00:01:27;;;;;;;26.90;12.77;;;;;;;;;;4980588;28;20134;-68
2023/12/20 00:03:53;;;;;;;31.77;12.88;;;;;;;;;;4981080;28;20031;-68
2023/12/20 00:06:19;;;;;;;28.63;11.77;;;;;;;;;;4979650;28;20093;-68
2023/12/20 00:08:45;;;;;;;26.88;12.55;;;;;;;;;;4980538;28;20409;-68
2023/12/20 00:11:11;;;;;;;27.55;11.90;;;;;;;;;;4980676;28;20041;-68
2023/12/20 00:13:37;;;;;;;27.77;12.13;;;;;;;;;;4980196;28;20096;-68
2023/12/20 00:16:03;;;;;;;29.77;12.85;;;;;;;;;;4979823;28;20049;-68
2023/12/20 00:18:29;;;;;;;29.55;12.90;;;;;;;;;;4979709;28;20046;-68
2023/12/20 00:20:55;;;;;;;26.35;12.45;;;;;;;;;;4981413;28;20073;-68
2023/12/20 00:23:23;;;;;;;26.85;12.38;;;;;;;;;;4994779;28;20441;-68
2023/12/20 00:25:49;;;;;;;26.10;12.75;;;;;;;;;;4981432;28;20030;-68
2023/12/20 00:28:15;;;;;;;27.65;12.57;;;;;;;;;;4980948;28;20061;-68
2023/12/20 00:30:41;;;;;;;28.63;12.70;;;;;;;;;;4977494;28;20049;-68
2023/12/20 00:33:07;;;;;;;30.50;14.20;;;;;;;;;;4979445;28;20038;-68
2023/12/20 00:35:33;;;;;;;23.65;12.20;;;;;;;;;;4992600;28;20034;-68
2023/12/20 00:37:59;;;;;;;29.55;13.55;;;;;;;;;;4978626;28;20571;-68
2023/12/20 00:40:25;;;;;;;34.13;13.32;;;;;;;;;;4977357;28;20030;-68
2023/12/20 00:42:51;;;;;;;26.55;13.70;;;;;;;;;;4975854;28;20045;-68
2023/12/20 00:45:17;;;;;;;29.67;13.93;;;;;;;;;;4981475;28;20130;-68
2023/12/20 00:47:43;;;;;;;32.50;14.77;;;;;;;;;;4975306;28;20149;-68
2023/12/20 00:50:09;;;;;;;27.83;12.75;;;;;;;;;;4971910;28;20499;-69
2023/12/20 00:52:35;;;;;;;29.88;13.07;;;;;;;;;;4989899;28;20034;-69
2023/12/20 00:55:01;;;;;;;33.55;14.38;;;;;;;;;;5009968;28;20034;-69
2023/12/20 00:57:27;;;;;;;32.20;14.90;;;;;;;;;;4975485;28;20486;-68
2023/12/20 00:59:53;;;;;;;36.65;15.68;;;;;;;;;;4981504;28;20449;-69
2023/12/20 01:02:19;;;;;;;30.98;15.93;;;;;;;;;;4984389;28;20731;-69
2023/12/20 01:04:45;;;;;;;33.30;16.08;;;;;;;;;;4986554;28;20038;-69
2023/12/20 01:07:11;;;;;;;36.63;16.80;;;;;;;;;;4983556;28;20054;-69
2023/12/20 01:09:37;;;;;;;32.60;16.38;;;;;;;;;;4979406;28;20030;-69
2023/12/20 01:12:03;;;;;;;32.83;17.55;;;;;;;;;;4977770;28;20627;-69
2023/12/20 01:14:29;;;;;;;33.90;17.83;;;;;;;;;;4997559;28;20714;-68
2023/12/20 01:16:55;;;;;;;35.33;19.10;;;;;;;;;;4986740;28;20037;-68
2023/12/20 01:19:21;;;;;;;31.67;16.50;;;;;;;;;;4982826;28;20074;-68
2023/12/20 01:21:47;;;;;;;26.73;16.67;;;;;;;;;;4996664;28;20030;-68
2023/12/20 01:24:13;;;;;;;26.75;15.02;;;;;;;;;;4985992;28;20031;-68
2023/12/20 01:26:39;;;;;;;29.13;15.85;;;;;;;;;;4984347;28;20837;-68
2023/12/20 01:29:05;;;;;;;30.73;16.75;;;;;;;;;;4983453;28;20035;-68
2023/12/20 01:31:31;;;;;;;30.15;16.52;;;;;;;;;;4984752;28;20031;-68
2023/12/20 01:33:57;;;;;;;32.55;15.80;;;;;;;;;;4986379;28;20507;-68
2023/12/20 01:36:23;;;;;;;24.35;15.18;;;;;;;;;;4985057;28;20405;-68
2023/12/20 01:38:49;;;;;;;28.45;14.20;;;;;;;;;;4990314;28;20034;-68
2023/12/20 01:41:15;;;;;;;29.02;14.32;;;;;;;;;;4984411;28;20587;-68
2023/12/20 01:43:41;;;;;;;32.78;13.52;;;;;;;;;;4986955;28;20026;-68
2023/12/20 01:46:07;;;;;;;24.70;12.63;;;;;;;;;;4982959;28;20050;-68
2023/12/20 01:48:33;;;;;;;29.95;11.13;;;;;;;;;;4983665;28;20046;-68
2023/12/20 01:51:03;;;;;;;29.20;13.30;;;;;;;;;;4988961;28;20084;-68
2023/12/20 01:53:29;;;;;;;34.85;14.27;;;;;;;;;;4982456;28;20034;-68
2023/12/20 01:55:56;;;;;;;29.55;13.07;;;;;;;;;;4988447;28;20133;-68
2023/12/20 01:58:23;;;;;;;28.88;13.35;;;;;;;;;;4988591;28;20034;-68
2023/12/20 02:00:49;;;;;;;27.17;12.23;;;;;;;;;;4983317;28;20038;-68
2023/12/20 02:03:16;;;;;;;31.38;12.45;;;;;;;;;;4983592;28;20030;-68
2023/12/20 02:05:42;;;;;;;31.30;11.82;;;;;;;;;;4973620;28;20035;-68
2023/12/20 02:08:08;;;;;;;27.95;11.45;;;;;;;;;;4980206;28;20375;-68
2023/12/20 02:10:34;;;;;;;29.33;11.07;;;;;;;;;;4982937;28;20106;-68
2023/12/20 02:13:00;;;;;;;29.98;10.55;;;;;;;;;;4973312;28;20775;-68
2023/12/20 02:15:26;;;;;;;28.85;10.48;;;;;;;;;;4985326;28;20130;-68
2023/12/20 02:17:52;;;;;;;26.02;11.35;;;;;;;;;;4979577;28;20050;-68
2023/12/20 02:20:18;;;;;;;26.50;10.85;;;;;;;;;;4981303;28;20057;-68
2023/12/20 02:22:44;;;;;;;29.20;10.43;;;;;;;;;;4983788;28;20039;-68
2023/12/20 02:25:13;;;;;;;33.00;9.98;;;;;;;;;;4985666;28;20279;-68
2023/12/20 02:27:40;;;;;;;30.88;11.10;;;;;;;;;;4988041;28;20031;-68
2023/12/20 02:30:06;;;;;;;27.00;10.43;;;;;;;;;;4983789;28;20139;-68
2023/12/20 02:32:32;;;;;;;28.23;9.55;;;;;;;;;;4983818;28;20042;-68
2023/12/20 02:34:58;;;;;;;23.00;8.18;;;;;;;;;;4982589;28;20042;-68
2023/12/20 02:37:25;;;;;;;33.88;9.68;;;;;;;;;;4987043;28;20489;-68
2023/12/20 02:39:51;;;;;;;31.23;9.15;;;;;;;;;;4986468;28;20034;-68
2023/12/20 02:42:17;;;;;;;22.38;8.20;;;;;;;;;;4982931;28;20170;-68
2023/12/20 02:44:42;;;;;;;26.13;7.60;;;;;;;;;;4984626;28;20130;-68
2023/12/20 02:47:09;;;;;;;21.52;6.78;;;;;;;;;;4983407;28;20050;-68
2023/12/20 02:49:35;;;;;;;23.67;6.93;;;;;;;;;;4981726;28;20763;-68
2023/12/20 02:52:01;;;;;;;33.50;6.35;;;;;;;;;;4982779;28;20038;-69
2023/12/20 02:54:27;;;;;;;24.42;5.95;;;;;;;;;;4982161;28;20036;-68
2023/12/20 02:56:53;;;;;;;24.88;5.78;;;;;;;;;;4983711;28;20591;-68
2023/12/20 02:59:19;;;;;;;24.98;5.57;;;;;;;;;;4982048;28;20026;-68
2023/12/20 03:01:45;;;;;;;22.58;5.00;;;;;;;;;;4986380;28;20038;-68
2023/12/20 03:04:12;;;;;;;19.77;4.03;;;;;;;;;;4980221;28;20105;-68
2023/12/20 03:06:38;;;;;;;19.52;4.47;;;;;;;;;;4982562;28;20574;-68
2023/12/20 03:09:04;;;;;;;26.88;4.53;;;;;;;;;;4980935;28;20042;-68
2023/12/20 03:11:30;;;;;;;22.75;4.43;;;;;;;;;;4977028;28;20030;-68
2023/12/20 03:13:56;;;;;;;17.70;4.50;;;;;;;;;;4982553;28;20544;-68
2023/12/20 03:16:22;;;;;;;15.27;4.10;;;;;;;;;;4981929;28;20062;-68
2023/12/20 03:18:48;;;;;;;20.80;3.85;;;;;;;;;;4981807;28;20125;-68
2023/12/20 03:21:14;;;;;;;14.95;3.75;;;;;;;;;;4980382;28;20885;-68
2023/12/20 03:23:41;;;;;;;20.30;3.72;;;;;;;;;;4985111;28;20034;-68
2023/12/20 03:26:08;;;;;;;23.90;4.75;;;;;;;;;;4982010;28;20062;-68
2023/12/20 03:28:34;;;;;;;25.45;4.72;;;;;;;;;;4988760;28;20034;-68
2023/12/20 03:31:00;;;;;;;22.23;3.80;;;;;;;;;;4984716;28;20141;-68
2023/12/20 03:33:25;;;;;;;22.73;4.20;;;;;;;;;;4981488;28;20113;-68
2023/12/20 03:35:51;;;;;;;17.90;3.72;;;;;;;;;;4988362;28;20034;-68
2023/12/20 03:38:18;;;;;;;17.13;3.88;;;;;;;;;;4982481;28;20034;-68
2023/12/20 03:40:43;;;;;;;19.95;3.47;;;;;;;;;;4982658;28;20800;-68
2023/12/20 03:43:09;;;;;;;20.52;4.05;;;;;;;;;;4985243;28;20113;-68
2023/12/20 03:45:36;;;;;;;15.57;3.20;;;;;;;;;;4982958;28;20509;-68
2023/12/20 03:48:02;;;;;;;19.70;3.85;;;;;;;;;;4980646;28;20043;-69
2023/12/20 03:50:27;;;;;;;22.73;4.60;;;;;;;;;;4982922;28;20042;-68
2023/12/20 03:52:53;;;;;;;26.77;4.70;;;;;;;;;;4983309;28;20046;-68
2023/12/20 03:55:19;;;;;;;15.00;3.90;;;;;;;;;;4982250;28;20041;-68
2023/12/20 03:57:45;;;;;;;33.20;4.40;;;;;;;;;;4984827;28;20130;-68
2023/12/20 04:00:12;;;;;;;18.38;4.75;;;;;;;;;;4980884;28;20121;-68
2023/12/20 04:02:41;;;;;;;17.30;4.15;;;;;;;;;;4982348;28;20569;-68
2023/12/20 04:05:08;;;;;;;23.40;5.03;;;;;;;;;;4983581;28;20471;-70
2023/12/20 04:07:34;;;;;;;23.67;4.07;;;;;;;;;;4988801;28;20033;-68
2023/12/20 04:10:00;;;;;;;17.45;3.92;;;;;;;;;;4978139;28;20454;-68
2023/12/20 04:12:26;;;;;;;27.73;4.43;;;;;;;;;;4981431;28;20050;-68
2023/12/20 04:14:52;;;;;;;19.70;4.25;;;;;;;;;;4980859;28;20405;-68
2023/12/20 04:17:18;;;;;;;14.45;3.60;;;;;;;;;;4982946;28;20031;-69
2023/12/20 04:19:44;;;;;;;11.10;3.92;;;;;;;;;;4982462;28;20348;-69
2023/12/20 04:22:10;;;;;;;29.92;5.82;;;;;;;;;;4981537;28;20026;-69
2023/12/20 04:24:36;;;;;;;24.88;6.45;;;;;;;;;;4980965;28;20438;-69
2023/12/20 04:27:02;;;;;;;20.58;5.93;;;;;;;;;;4980974;28;20695;-69
2023/12/20 04:29:29;;;;;;;26.80;6.68;;;;;;;;;;4984925;28;20031;-68
2023/12/20 04:31:55;;;;;;;24.42;6.53;;;;;;;;;;4983125;28;20050;-68
2023/12/20 04:34:21;;;;;;;23.10;6.13;;;;;;;;;;4986697;28;20031;-68
2023/12/20 04:36:47;;;;;;;20.33;7.43;;;;;;;;;;4983399;28;20043;-68
2023/12/20 04:39:14;;;;;;;26.50;7.35;;;;;;;;;;4987102;28;20054;-69
2023/12/20 04:41:40;;;;;;;24.65;7.82;;;;;;;;;;4976914;28;20580;-68
2023/12/20 04:44:06;;;;;;;36.40;8.73;;;;;;;;;;4980712;28;20066;-68
2023/12/20 04:46:32;;;;;;;23.65;8.07;;;;;;;;;;4980977;28;20348;-69
2023/12/20 04:48:58;;;;;;;33.75;8.98;;;;;;;;;;4983357;28;20061;-69
2023/12/20 04:51:24;;;;;;;29.67;9.27;;;;;;;;;;4980643;28;20050;-69
2023/12/20 04:53:50;;;;;;;25.70;7.47;;;;;;;;;;4979214;28;20049;-69
2023/12/20 04:56:16;;;;;;;26.67;8.85;;;;;;;;;;4979165;28;20383;-69
2023/12/20 04:58:45;;;;;;;34.63;9.88;;;;;;;;;;4980844;28;20375;-68
2023/12/20 05:01:11;;;;;;;29.00;9.43;;;;;;;;;;4984337;28;20477;-69
2023/12/20 05:03:37;;;;;;;23.90;9.20;;;;;;;;;;4980969;28;20789;-69
2023/12/20 05:06:03;;;;;;;38.35;10.35;;;;;;;;;;4979790;28;20030;-68
2023/12/20 05:08:29;;;;;;;29.50;9.10;;;;;;;;;;4979516;28;20030;-69
2023/12/20 05:10:55;;;;;;;34.03;9.43;;;;;;;;;;4980204;28;20482;-69
2023/12/20 05:13:22;;;;;;;30.17;9.38;;;;;;;;;;4979404;28;20050;-69
2023/12/20 05:15:48;;;;;;;29.02;8.90;;;;;;;;;;4980680;28;20030;-69
2023/12/20 05:18:14;;;;;;;38.22;10.60;;;;;;;;;;4977666;28;20736;-68
2023/12/20 05:20:40;;;;;;;28.90;9.73;;;;;;;;;;4980084;28;20046;-69
2023/12/20 05:23:06;;;;;;;34.95;9.18;;;;;;;;;;4985201;28;20114;-69
2023/12/20 05:25:32;;;;;;;28.77;8.52;;;;;;;;;;4981135;28;20120;-68
2023/12/20 05:27:58;;;;;;;41.95;9.32;;;;;;;;;;4982412;28;20093;-68
2023/12/20 05:30:24;;;;;;;30.92;9.70;;;;;;;;;;4981511;28;20038;-67
2023/12/20 05:32:51;;;;;;;32.13;10.18;;;;;;;;;;4980491;28;20926;-68
2023/12/20 05:35:17;;;;;;;38.47;9.57;;;;;;;;;;4980183;28;20700;-68
2023/12/20 05:37:43;;;;;;;27.60;9.85;;;;;;;;;;4979723;28;20026;-68
2023/12/20 05:40:10;;;;;;;34.60;10.38;;;;;;;;;;4979463;28;20064;-67
2023/12/20 05:42:36;;;;;;;30.70;9.27;;;;;;;;;;4979553;28;20427;-68
2023/12/20 05:45:02;;;;;;;38.45;9.38;;;;;;;;;;4982197;28;20046;-68
2023/12/20 05:47:28;;;;;;;42.35;10.15;;;;;;;;;;4983408;28;20062;-68
2023/12/20 05:49:54;;;;;;;42.20;10.27;;;;;;;;;;4987301;28;20072;-68
2023/12/20 05:52:20;;;;;;;36.20;9.88;;;;;;;;;;4983475;28;20117;-69
2023/12/20 05:54:46;;;;;;;42.58;11.15;;;;;;;;;;4983042;28;20034;-68
2023/12/20 05:57:12;;;;;;;40.75;10.77;;;;;;;;;;4983852;28;20560;-67
2023/12/20 05:59:38;;;;;;;40.78;10.93;;;;;;;;;;4992110;28;20398;-67
2023/12/20 06:02:04;;;;;;;37.83;11.75;;;;;;;;;;4983073;28;20042;-67
2023/12/20 06:04:31;;;;;;;37.15;10.75;;;;;;;;;;4982057;28;20624;-67
2023/12/20 06:06:57;;;;;;;40.70;10.70;;;;;;;;;;4986561;28;20069;-67
2023/12/20 06:09:23;;;;;;;29.40;10.13;;;;;;;;;;4982632;28;20199;-67
2023/12/20 06:11:49;;;;;;;47.65;13.77;;;;;;;;;;4983276;28;20412;-67
2023/12/20 06:14:15;;;;;;;75.00;19.20;;;;;;;;;;4982431;28;20541;-67
2023/12/20 06:16:41;;;;;;;76.10;18.65;;;;;;;;;;4982317;28;20198;-67
2023/12/20 06:19:07;;;;;;;68.13;18.17;;;;;;;;;;4982241;28;20219;-66
2023/12/20 06:21:33;;;;;;;65.20;16.60;;;;;;;;;;4986381;28;20298;-66
2023/12/20 06:24:00;;;;;;;55.97;14.32;;;;;;;;;;4986154;28;20093;-67
2023/12/20 06:26:26;;;;;;;42.67;12.15;;;;;;;;;;4982835;28;20042;-67
2023/12/20 06:28:52;;;;;;;38.40;10.35;;;;;;;;;;4983542;28;20039;-67
2023/12/20 06:31:18;;;;;;;35.22;9.27;;;;;;;;;;4987497;28;20045;-66
2023/12/20 06:33:44;;;;;;;40.28;8.95;;;;;;;;;;4979489;28;20049;-67
2023/12/20 06:36:13;;;;;;;33.38;8.57;;;;;;;;;;4985829;28;20066;-66
2023/12/20 06:38:39;;;;;;;35.22;9.20;;;;;;;;;;4984874;28;20146;-67
2023/12/20 06:41:06;;;;;;;39.58;8.63;;;;;;;;;;4977406;28;20047;-66
2023/12/20 06:43:32;;;;;;;33.85;8.45;;;;;;;;;;4987472;28;20027;-66
2023/12/20 06:45:58;;;;;;;28.75;8.40;;;;;;;;;;4981849;28;20731;-66
2023/12/20 06:48:24;;;;;;;34.30;8.20;;;;;;;;;;4984350;28;20711;-67
2023/12/20 06:50:50;;;;;;;26.15;7.38;;;;;;;;;;4982687;28;20045;-67
2023/12/20 06:53:16;;;;;;;22.95;6.82;;;;;;;;;;4980430;28;20050;-66
2023/12/20 06:55:42;;;;;;;36.08;7.43;;;;;;;;;;4985330;28;20497;-67
2023/12/20 06:58:08;;;;;;;35.08;7.80;;;;;;;;;;4979928;28;20077;-69
2023/12/20 07:00:35;;;;;;;36.30;8.25;;;;;;;;;;4980000;28;20025;-69
2023/12/20 07:03:01;;;;;;;30.17;7.22;;;;;;;;;;4988041;28;20089;-69
2023/12/20 07:05:27;;;;;;;26.60;6.65;;;;;;;;;;4982560;28;20038;-68
2023/12/20 07:07:52;;;;;;;32.55;8.15;;;;;;;;;;4982207;28;20129;-68
2023/12/20 07:10:18;;;;;;;32.10;7.85;;;;;;;;;;4981101;28;20468;-68
2023/12/20 07:12:44;;;;;;;32.25;8.07;;;;;;;;;;4981701;28;20041;-68
2023/12/20 07:15:11;;;;;;;29.67;7.55;;;;;;;;;;4981499;28;20038;-68
2023/12/20 07:17:37;;;;;;;31.38;7.82;;;;;;;;;;4986042;28;20034;-67
2023/12/20 07:20:03;;;;;;;34.25;7.70;;;;;;;;;;4980898;28;20458;-68
2023/12/20 07:22:31;;;;;;;31.02;8.18;;;;;;;;;;4982780;28;20030;-69
2023/12/20 07:24:58;;;;;;;30.00;7.82;;;;;;;;;;4979093;28;20057;-68
2023/12/20 07:27:24;;;;;;;25.95;8.38;;;;;;;;;;4981268;28;20034;-68
2023/12/20 07:29:50;;;;;;;34.78;8.77;;;;;;;;;;4983617;28;20038;-68
2023/12/20 07:32:16;;;;;;;35.28;8.20;;;;;;;;;;4972522;28;20042;-68
2023/12/20 07:34:42;;;;;;;30.27;8.57;;;;;;;;;;4977460;28;20027;-68
2023/12/20 07:37:10;;;;;;;32.40;9.05;;;;;;;;;;4975414;28;20164;-67
2023/12/20 07:39:36;;;;;;;27.25;8.57;;;;;;;;;;4987378;28;20042;-67
2023/12/20 07:42:02;;;;;;;28.98;8.43;;;;;;;;;;4992868;28;20173;-68
2023/12/20 07:44:28;;;;;;;31.15;7.75;;;;;;;;;;4992574;28;20121;-68
2023/12/20 07:46:54;;;;;;;28.33;8.68;;;;;;;;;;4989008;28;20077;-67
2023/12/20 07:49:20;;;;;;;28.48;9.13;;;;;;;;;;4979146;28;20043;-68
2023/12/20 07:51:46;;;;;;;32.08;8.98;;;;;;;;;;4981055;28;20030;-67
2023/12/20 07:54:12;;;;;;;26.98;9.25;;;;;;;;;;4980180;28;20038;-67
2023/12/20 07:56:39;;;;;;;33.53;10.35;;;;;;;;;;4981885;28;20026;-68
2023/12/20 07:59:05;;;;;;;35.85;10.75;;;;;;;;;;4982520;28;20045;-68
2023/12/20 08:01:31;;;;;;;29.25;9.88;;;;;;;;;;4982368;28;20046;-67
2023/12/20 08:03:57;;;;;;;34.10;9.55;;;;;;;;;;4980999;28;20045;-67
2023/12/20 08:06:23;;;;;;;26.98;9.52;;;;;;;;;;4983742;28;20038;-68
2023/12/20 08:08:49;;;;;;;43.20;10.85;;;;;;;;;;4982253;28;20034;-68
2023/12/20 08:11:15;;;;;;;27.95;9.48;;;;;;;;;;4976162;28;20030;-68
2023/12/20 08:13:41;;;;;;;26.27;9.10;;;;;;;;;;4985825;28;20474;-68
2023/12/20 08:16:08;;;;;;;29.42;8.88;;;;;;;;;;4978155;28;20046;-68
2023/12/20 08:18:34;;;;;;;32.05;9.98;;;;;;;;;;4985279;28;20379;-68
2023/12/20 08:21:01;;;;;;;36.78;9.43;;;;;;;;;;4982113;28;20053;-68
2023/12/20 08:23:27;;;;;;;36.50;9.93;;;;;;;;;;4970809;28;20034;-69
2023/12/20 08:25:53;;;;;;;30.92;8.40;;;;;;;;;;4980482;28;20057;-69
2023/12/20 08:28:19;;;;;;;24.35;8.05;;;;;;;;;;4979700;28;20077;-69
2023/12/20 08:30:45;;;;;;;29.40;7.78;;;;;;;;;;4981350;28;20034;-69
2023/12/20 08:33:12;;;;;;;22.25;7.43;;;;;;;;;;4979734;28;20078;-69
2023/12/20 08:35:39;;;;;;;29.50;7.10;;;;;;;;;;4979733;28;20034;-68
2023/12/20 08:38:05;;;;;;;30.70;8.07;;;;;;;;;;4972241;28;20502;-68
2023/12/20 08:40:31;;;;;;;24.92;6.82;;;;;;;;;;4967082;28;20065;-68
2023/12/20 08:42:57;;;;;;;25.33;7.03;;;;;;;;;;4967198;28;20050;-68
2023/12/20 08:45:23;;;;;;;32.05;7.10;;;;;;;;;;4978803;28;20257;-70
2023/12/20 08:47:49;;;;;;;26.33;6.50;;;;;;;;;;4979862;28;20464;-68
2023/12/20 08:50:15;;;;;;;30.45;6.40;;;;;;;;;;4984763;28;20585;-69
2023/12/20 08:52:42;;;;;;;27.90;7.53;;;;;;;;;;4978948;28;20039;-67
2023/12/20 08:55:09;;;;;;;32.55;6.70;;;;;;;;;;4970212;28;20474;-68
2023/12/20 08:57:35;;;;;;;30.27;6.78;;;;;;;;;;4984365;28;20119;-68
2023/12/20 09:00:01;;;;;;;29.63;6.10;;;;;;;;;;4980935;28;20352;-68
2023/12/20 09:02:28;;;;;;;29.92;5.95;;;;;;;;;;4983671;28;20078;-66
2023/12/20 09:04:55;;;;;;;22.20;6.43;;;;;;;;;;4978971;28;20583;-67
2023/12/20 09:07:24;;;;;;;26.08;6.25;;;;;;;;;;4979709;28;20054;-69
2023/12/20 09:09:51;;;;;;;30.13;5.63;;;;;;;;;;4978902;28;20113;-68
2023/12/20 09:12:19;;;;;;;30.85;6.20;;;;;;;;;;4990640;28;20031;-67
2023/12/20 09:14:45;;;;;;;25.50;5.25;;;;;;;;;;4977556;28;20600;-67
2023/12/20 09:17:11;;;;;;;31.20;6.35;;;;;;;;;;4981110;28;20034;-68
2023/12/20 09:19:38;;;;;;;29.27;6.40;;;;;;;;;;4983930;28;20069;-68
2023/12/20 09:22:04;;;;;;;18.88;5.75;;;;;;;;;;4981742;28;20038;-67
2023/12/20 09:24:30;;;;;;;28.48;6.10;;;;;;;;;;4982658;28;20045;-67
2023/12/20 09:26:56;;;;;;;22.33;5.53;;;;;;;;;;4984342;28;21478;-68
2023/12/20 09:29:24;;;;;;;25.05;6.40;;;;;;;;;;4988879;28;20198;-67
2023/12/20 09:31:50;;;;;;;29.95;5.53;;;;;;;;;;4984741;28;20058;-68
2023/12/20 09:34:19;;;;;;;34.55;6.20;;;;;;;;;;4988478;28;20065;-68
2023/12/20 09:36:46;;;;;;;27.20;6.20;;;;;;;;;;4983142;28;20614;-68
2023/12/20 09:39:19;;;;;;;25.38;5.95;;;;;;;;;;4990599;28;20034;-68
2023/12/20 09:41:46;;;;;;;20.13;4.50;;;;;;;;;;4984585;28;20081;-68
2023/12/20 09:44:17;;;;;;;18.75;6.07;;;;;;;;;;4982238;28;20038;-68
2023/12/20 09:46:44;;;;;;;26.52;5.75;;;;;;;;;;4981684;28;20712;-68
2023/12/20 09:49:10;;;;;;;24.83;5.78;;;;;;;;;;4984570;28;20417;-67
2023/12/20 09:51:36;;;;;;;20.65;5.55;;;;;;;;;;4983593;28;20066;-69
2023/12/20 09:54:05;;;;;;;18.80;4.35;;;;;;;;;;4982395;28;20049;-69
2023/12/20 09:56:31;;;;;;;26.17;6.20;;;;;;;;;;4982508;28;20389;-69
2023/12/20 09:58:57;;;;;;;21.45;4.93;;;;;;;;;;4983171;28;20037;-68
2023/12/20 10:01:24;;;;;;;21.20;5.65;;;;;;;;;;4983319;28;20057;-69
2023/12/20 10:03:51;;;;;;;33.65;6.95;;;;;;;;;;4982613;28;20188;-68
2023/12/20 10:06:18;;;;;;;26.27;6.60;;;;;;;;;;4981144;28;20088;-71
2023/12/20 10:08:44;;;;;;;23.63;5.35;;;;;;;;;;4980820;28;20034;-71
2023/12/20 10:11:10;;;;;;;24.20;6.10;;;;;;;;;;4970250;28;20587;-70
2023/12/20 10:13:40;;;;;;;24.45;6.07;;;;;;;;;;4976678;28;20065;-70
2023/12/20 10:16:07;;;;;;;23.38;6.03;;;;;;;;;;4968907;28;20042;-70
2023/12/20 10:18:33;;;;;;;29.30;6.63;;;;;;;;;;4980426;28;20034;-72
2023/12/20 10:21:00;;;;;;;29.23;6.45;;;;;;;;;;4972435;28;20047;-72
2023/12/20 10:23:26;;;;;;;20.38;5.68;;;;;;;;;;4977085;28;20378;-71
2023/12/20 10:25:59;;;;;;;19.30;5.85;;;;;;;;;;4982778;28;20558;-72
2023/12/20 10:28:27;;;;;;;19.23;3.87;;;;;;;;;;4982043;28;20617;-71
2023/12/20 10:30:56;;;;;;;23.10;5.63;;;;;;;;;;4987219;28;20560;-72
2023/12/20 10:33:25;;;;;;;26.02;5.95;;;;;;;;;;4981958;28;20079;-72
2023/12/20 10:35:52;;;;;;;19.13;5.70;;;;;;;;;;4983921;28;20108;-71
2023/12/20 10:38:18;;;;;;;28.08;5.90;;;;;;;;;;4984432;28;20034;-71
2023/12/20 10:40:46;;;;;;;29.25;6.50;;;;;;;;;;4982632;28;20434;-72
2023/12/20 10:43:13;;;;;;;32.60;6.60;;;;;;;;;;4983011;28;20037;-71
2023/12/20 10:45:39;;;;;;;27.77;6.60;;;;;;;;;;4989351;28;20053;-72
2023/12/20 10:48:05;;;;;;;23.25;6.03;;;;;;;;;;4983879;28;20783;-72
2023/12/20 10:50:31;;;;;;;25.30;5.78;;;;;;;;;;4983245;28;20066;-71
2023/12/20 10:52:58;;;;;;;28.23;6.32;;;;;;;;;;4989881;28;20046;-71
2023/12/20 10:55:25;;;;;;;21.83;5.60;;;;;;;;;;4981048;28;20446;-71
2023/12/20 10:57:52;;;;;;;18.73;5.18;;;;;;;;;;4982690;28;20042;-71
2023/12/20 11:00:19;;;;;;;21.98;5.57;;;;;;;;;;4988814;28;20450;-72
2023/12/20 11:02:45;;;;;;;23.15;5.45;;;;;;;;;;4983942;28;20077;-70
2023/12/20 11:05:23;;;;;;;25.33;6.00;;;;;;;;;;4987076;28;20034;-72
2023/12/20 11:07:56;;;;;;;27.77;6.20;;;;;;;;;;4979252;28;20038;-71
2023/12/20 11:10:25;;;;;;;19.20;5.45;;;;;;;;;;4993800;28;20082;-71
2023/12/20 11:12:58;;;;;;;27.98;6.57;;;;;;;;;;4990427;28;20850;-71
2023/12/20 11:15:27;;;;;;;22.40;6.35;;;;;;;;;;4982685;28;20029;-69
2023/12/20 11:17:56;;;;;;;23.58;5.38;;;;;;;;;;4980255;28;20561;-70
2023/12/20 11:20:36;;;;;;;27.38;6.05;;;;;;;;;;4980841;28;20058;-69
2023/12/20 11:23:02;;;;;;;24.38;6.13;;;;;;;;;;4977326;28;20134;-69
2023/12/20 11:25:28;;;;;;;25.85;5.53;;;;;;;;;;4992806;28;20129;-69
2023/12/20 11:28:10;;;;;;;20.65;5.35;;;;;;;;;;4986316;28;20039;-69
2023/12/20 11:30:42;;;;;;;22.40;5.60;;;;;;;;;;4988567;28;20045;-70
2023/12/20 11:33:09;;;;;;;23.70;6.07;;;;;;;;;;4980268;28;20036;-68
2023/12/20 11:35:36;;;;;;;23.85;5.68;;;;;;;;;;4981060;28;20032;-68
2023/12/20 11:38:02;;;;;;;21.75;6.35;;;;;;;;;;4981462;28;20044;-69
2023/12/20 11:40:28;;;;;;;29.95;6.18;;;;;;;;;;4986388;28;20034;-69
2023/12/20 11:42:55;;;;;;;21.20;5.95;;;;;;;;;;4981338;28;20460;-69
2023/12/20 11:45:22;;;;;;;22.58;5.95;;;;;;;;;;4991539;28;20038;-71
2023/12/20 11:47:54;;;;;;;27.48;5.82;;;;;;;;;;4983446;28;20080;-71
2023/12/20 11:50:20;;;;;;;18.35;5.53;;;;;;;;;;4985773;28;20559;-72
2023/12/20 11:52:46;;;;;;;20.35;5.32;;;;;;;;;;4984101;28;20050;-72
2023/12/20 11:55:12;;;;;;;24.83;5.75;;;;;;;;;;4972337;28;20031;-72
2023/12/20 11:57:38;;;;;;;24.67;5.20;;;;;;;;;;4969860;28;20533;-72
2023/12/20 12:00:06;;;;;;;21.60;5.38;;;;;;;;;;4976661;28;20030;-71
2023/12/20 12:02:32;;;;;;;19.35;5.68;;;;;;;;;;4963382;28;20035;-72
2023/12/20 12:04:58;;;;;;;20.48;5.65;;;;;;;;;;4962433;28;20066;-72
2023/12/20 12:07:24;;;;;;;24.27;5.80;;;;;;;;;;4960831;28;20810;-72
2023/12/20 12:09:50;;;;;;;21.23;6.15;;;;;;;;;;4960665;28;20054;-72
2023/12/20 12:12:17;;;;;;;23.60;6.47;;;;;;;;;;4961106;28;20042;-72
2023/12/20 12:14:45;;;;;;;23.73;7.70;;;;;;;;;;4973232;28;20042;-72
2023/12/20 12:17:17;;;;;;;26.10;8.30;;;;;;;;;;4988770;28;20136;-72
2023/12/20 12:19:43;;;;;;;23.20;8.52;;;;;;;;;;4982354;28;20034;-72
2023/12/20 12:22:12;;;;;;;24.60;7.72;;;;;;;;;;4977182;28;20038;-71
2023/12/20 12:24:38;;;;;;;21.88;6.95;;;;;;;;;;4980190;28;20041;-71
2023/12/20 12:27:06;;;;;;;27.60;7.13;;;;;;;;;;4977996;28;20106;-72
2023/12/20 12:29:32;;;;;;;29.95;6.50;;;;;;;;;;4980395;28;20072;-71
2023/12/20 12:31:58;;;;;;;27.75;7.55;;;;;;;;;;4980163;28;20286;-72
2023/12/20 12:34:26;;;;;;;27.20;8.27;;;;;;;;;;4979028;28;20121;-71
2023/12/20 12:36:52;;;;;;;27.38;7.65;;;;;;;;;;4973343;28;20043;-72
2023/12/20 12:39:18;;;;;;;27.75;7.65;;;;;;;;;;4984745;28;20042;-72
2023/12/20 12:41:44;;;;;;;24.48;7.93;;;;;;;;;;4979485;28;20037;-72
2023/12/20 12:44:10;;;;;;;33.45;7.38;;;;;;;;;;4971248;28;20389;-72
2023/12/20 12:46:36;;;;;;;28.08;7.55;;;;;;;;;;4980309;28;20034;-73
2023/12/20 12:49:02;;;;;;;24.30;7.47;;;;;;;;;;4978247;28;20101;-72
2023/12/20 12:51:28;;;;;;;32.38;8.85;;;;;;;;;;4972850;28;20565;-72
2023/12/20 12:53:54;;;;;;;22.00;7.60;;;;;;;;;;4982387;28;20089;-72
2023/12/20 12:56:22;;;;;;;25.10;8.38;;;;;;;;;;4982750;28;20042;-69
2023/12/20 12:58:48;;;;;;;24.52;8.07;;;;;;;;;;4985169;28;20427;-69
2023/12/20 13:01:13;;;;;;;27.55;8.07;;;;;;;;;;4998603;28;20357;-69
2023/12/20 13:03:40;;;;;;;25.70;8.48;;;;;;;;;;4998387;28;20565;-69
2023/12/20 13:06:08;;;;;;;30.08;8.43;;;;;;;;;;4985973;28;20042;-69
2023/12/20 13:08:34;;;;;;;30.95;8.88;;;;;;;;;;4983703;28;20062;-69
2023/12/20 13:11:00;;;;;;;23.13;7.85;;;;;;;;;;4982782;28;20034;-70
2023/12/20 13:13:29;;;;;;;27.55;8.45;;;;;;;;;;4982711;28;20117;-69
2023/12/20 13:15:55;;;;;;;23.20;7.50;;;;;;;;;;4989399;28;20557;-69
2023/12/20 13:18:22;;;;;;;30.15;8.85;;;;;;;;;;4983703;28;20038;-69
2023/12/20 13:20:48;;;;;;;28.13;8.27;;;;;;;;;;4986603;28;20034;-70
2023/12/20 13:23:14;;;;;;;28.70;9.00;;;;;;;;;;4983014;28;20053;-70
2023/12/20 13:25:41;;;;;;;32.10;8.90;;;;;;;;;;4983041;28;20042;-69
2023/12/20 13:28:08;;;;;;;27.92;8.75;;;;;;;;;;4973056;28;20137;-71
2023/12/20 13:30:34;;;;;;;27.23;8.43;;;;;;;;;;4980871;28;20092;-70
2023/12/20 13:33:00;;;;;;;29.27;8.23;;;;;;;;;;4988248;28;20070;-71
2023/12/20 13:35:26;;;;;;;26.52;8.65;;;;;;;;;;4962164;28;20062;-71
2023/12/20 13:37:52;;;;;;;28.02;9.82;;;;;;;;;;4962792;28;20074;-71
2023/12/20 13:40:19;;;;;;;30.13;9.40;;;;;;;;;;4977935;28;20073;-71
2023/12/20 13:42:45;;;;;;;28.88;9.90;;;;;;;;;;4976276;28;20031;-71
2023/12/20 13:45:11;;;;;;;23.10;9.35;;;;;;;;;;4953796;28;20897;-71
2023/12/20 13:47:37;;;;;;;26.25;9.70;;;;;;;;;;4964735;28;20411;-71
2023/12/20 13:50:04;;;;;;;25.85;10.00;;;;;;;;;;4972798;28;20035;-71
2023/12/20 13:52:31;;;;;;;25.90;9.95;;;;;;;;;;4963862;28;20030;-71
2023/12/20 13:54:57;;;;;;;27.35;10.38;;;;;;;;;;4978603;28;20038;-71
2023/12/20 13:57:23;;;;;;;28.65;11.02;;;;;;;;;;4964549;28;20042;-71
2023/12/20 13:59:49;;;;;;;25.15;11.23;;;;;;;;;;4966401;28;20336;-71
2023/12/20 14:02:16;;;;;;;33.35;11.50;;;;;;;;;;4964220;28;20434;-71
2023/12/20 14:04:42;;;;;;;28.05;10.35;;;;;;;;;;4960681;28;20034;-70
2023/12/20 14:07:09;;;;;;;32.22;11.45;;;;;;;;;;4962853;28;20141;-70
2023/12/20 14:09:35;;;;;;;26.05;10.45;;;;;;;;;;4971574;28;20038;-70
2023/12/20 14:12:01;;;;;;;26.95;11.23;;;;;;;;;;4980684;28;20039;-71
2023/12/20 14:14:27;;;;;;;29.67;10.90;;;;;;;;;;4983143;28;20041;-70
2023/12/20 14:16:53;;;;;;;29.85;10.45;;;;;;;;;;4984167;28;20488;-71
2023/12/20 14:19:19;;;;;;;32.50;10.55;;;;;;;;;;4981941;28;20038;-70
2023/12/20 14:21:48;;;;;;;30.63;10.70;;;;;;;;;;4978712;28;20030;-71